KPSP/PSP METAR and TAF weather

Enter ICAO airport designator
Station Type Date Time Source
KPSP METAR 2020/04/01 22:53 UTC NOAA

KPSP 012253Z 17007KT 140V210 10SM CLR 31/04 A2969 RMK AO2 SLP050 T03110044


Station Type Date Time Source
KPSP Decoded METAR 2020/04/01 22:53 UTC NOAA

PALM SPRINGS REGIONAL AIRPORT , CA, United States (KPSP) 33-50N 116-30W 135M
Apr 01, 2020 - 06:53 PM EDT / 2020.04.01 2253 UTC
Wind: from the S (170 degrees) at 8 MPH (7 KT) (direction variable):0
Visibility: 10 mile(s):0
Sky conditions: clear
Temperature: 88.0 F (31.1 C)
Dew Point: 39.9 F (4.4 C)
Relative Humidity: 18%
Pressure (altimeter): 29.69 in. Hg (1005 hPa)
ob: KPSP 012253Z 17007KT 140V210 10SM CLR 31/04 A2969 RMK AO2 SLP050 T03110044
cycle: 23

Station Type Date Time Source
KPSP TAF 2020/04/01 18:22 UTC NOAA

TAF KPSP 011720Z 0118/0218 VRB05KT P6SM SCT200
FM012200 35011G20KT P6SM FEW200
FM020700 32007KT P6SM SKC
FM021100 32005KT P6SM SKC

Example: see airport list